Time;durP1;ratioP1;P1;durP2;ratioP2;P2;SDS_P1;SDS_P2;PMS_P1;PMS_P2;Temp;Humidity;BMP_temperature;BMP_pressure;BME280_temperature;BME280_humidity;BME280_pressure;Samples;Min_cycle;Max_cycle;Signal;HPM_P1;HPM_P2
2022/11/24 18:45:52;;;;;;;33.60;16.30;;;;;;;4.91;100.00;100142.86;1776644;80;22335;-73
2022/11/24 18:48:24;;;;;;;35.60;17.20;;;;;;;4.95;100.00;99968.77;1749184;82;21031;-73
2022/11/24 18:50:54;;;;;;;35.37;16.97;;;;;;;5.02;100.00;99957.02;1765720;80;21024;-73
2022/11/24 18:53:24;;;;;;;37.20;18.20;;;;;;;5.04;100.00;99944.32;1720944;83;21548;-73
2022/11/24 18:56:01;;;;;;;31.60;15.77;;;;;;;5.04;100.00;99927.41;1719170;83;21059;-73
2022/11/24 18:58:30;;;;;;;33.77;15.90;;;;;;;5.02;100.00;99919.50;1662897;86;21098;-72
2022/11/24 19:04:51;;;;;;;34.55;16.48;;;;;;;5.01;100.00;99906.23;1663470;86;21712;-72
2022/11/24 19:07:19;;;;;;;34.73;16.80;;;;;;;5.00;100.00;99903.22;1663201;86;21019;-72
2022/11/24 19:09:46;;;;;;;35.83;16.77;;;;;;;5.00;100.00;99899.20;1663406;86;21555;-71
2022/11/24 19:12:14;;;;;;;38.83;17.17;;;;;;;5.00;100.00;99897.86;1663400;86;21050;-73
2022/11/24 19:14:41;;;;;;;31.00;16.07;;;;;;;5.00;100.00;99891.99;1663177;86;21156;-73
2022/11/24 19:17:09;;;;;;;32.93;14.40;;;;;;;5.00;100.00;99891.99;1682366;85;21007;-72
2022/11/24 19:19:38;;;;;;;34.00;15.93;;;;;;;5.00;100.00;99898.70;1682823;85;21078;-73
2022/11/24 19:22:05;;;;;;;32.33;14.67;;;;;;;5.01;100.00;99901.74;1682661;84;21055;-73
2022/11/24 19:24:32;;;;;;;29.63;14.13;;;;;;;5.01;100.00;99898.19;1682409;85;21054;-70
2022/11/24 19:26:58;;;;;;;30.70;14.03;;;;;;;5.02;100.00;99895.37;1682381;85;21023;-72
2022/11/24 19:29:28;;;;;;;31.77;14.97;;;;;;;5.05;100.00;99887.57;1682373;85;20991;-72
2022/11/24 19:31:55;;;;;;;29.00;14.23;;;;;;;5.06;100.00;99887.91;1682332;84;21011;-72
2022/11/24 19:34:23;;;;;;;30.83;15.20;;;;;;;5.09;100.00;99894.34;1682426;85;21094;-73
2022/11/24 19:36:50;;;;;;;28.80;14.87;;;;;;;5.10;100.00;99908.94;1682373;85;21058;-72
2022/11/24 19:39:18;;;;;;;29.10;13.70;;;;;;;5.12;100.00;99908.80;1682404;85;21066;-74
2022/11/24 19:41:48;;;;;;;30.80;13.87;;;;;;;5.14;100.00;99918.89;1682198;85;21043;-72
2022/11/24 19:44:16;;;;;;;28.03;13.90;;;;;;;5.14;100.00;99904.15;1679432;83;21095;-73
2022/11/24 19:46:43;;;;;;;31.03;13.27;;;;;;;5.14;100.00;99903.64;1670983;86;21028;-71
2022/11/24 19:49:12;;;;;;;30.90;15.13;;;;;;;5.16;100.00;99901.33;1644151;86;21057;-72
2022/11/24 19:51:41;;;;;;;31.70;15.27;;;;;;;5.13;100.00;99899.29;1649944;87;21039;-73
2022/11/24 19:54:11;;;;;;;34.93;15.47;;;;;;;5.11;100.00;99893.70;1651628;86;21043;-72
2022/11/24 19:56:40;;;;;;;32.23;14.63;;;;;;;5.07;100.00;99887.77;1663683;85;21543;-72
2022/11/24 19:59:07;;;;;;;29.10;14.90;;;;;;;5.04;100.00;99890.72;1686969;85;21089;-71
2022/11/24 20:01:37;;;;;;;31.63;14.67;;;;;;;5.02;100.00;99884.66;1704617;84;21050;-72
2022/11/24 20:04:12;;;;;;;31.17;14.50;;;;;;;5.01;100.00;99880.77;1681118;84;21038;-73
2022/11/24 20:06:41;;;;;;;34.07;15.87;;;;;;;5.01;100.00;99877.63;1675517;86;21118;-73
2022/11/24 20:09:11;;;;;;;32.93;15.07;;;;;;;5.01;100.00;99885.66;1676258;86;21078;-72
2022/11/24 20:11:39;;;;;;;30.20;14.87;;;;;;;5.02;100.00;99886.00;1675729;86;21082;-72
2022/11/24 20:14:10;;;;;;;32.17;15.97;;;;;;;5.03;100.00;99897.09;1675622;86;21114;-72
2022/11/24 20:16:37;;;;;;;36.77;17.37;;;;;;;5.08;100.00;99896.18;1624785;88;21627;-73
2022/11/24 20:19:06;;;;;;;32.37;17.90;;;;;;;5.14;100.00;99892.09;1624862;88;21058;-73
2022/11/24 20:21:37;;;;;;;38.97;19.60;;;;;;;5.16;100.00;99892.79;1624801;88;21082;-73
2022/11/24 20:24:08;;;;;;;34.80;17.50;;;;;;;5.19;100.00;99896.54;1624919;88;21039;-71
2022/11/24 20:26:38;;;;;;;34.37;16.03;;;;;;;5.20;100.00;99891.52;1627515;85;21036;-74
2022/11/24 20:29:06;;;;;;;28.83;15.03;;;;;;;5.22;100.00;99896.73;1679079;85;21043;-72
2022/11/24 20:31:37;;;;;;;27.83;14.30;;;;;;;5.25;100.00;99896.47;1678690;85;21071;-72
2022/11/24 20:34:06;;;;;;;32.73;15.03;;;;;;;5.27;100.00;99899.34;1679103;85;21000;-72
2022/11/24 20:36:34;;;;;;;26.27;14.03;;;;;;;5.31;100.00;99905.27;1679048;85;21071;-73
2022/11/24 20:39:10;;;;;;;31.30;13.73;;;;;;;5.32;100.00;99911.84;1679022;85;21554;-73
2022/11/24 20:41:38;;;;;;;25.20;12.03;;;;;;;5.33;100.00;99904.16;1678917;85;21028;-73
2022/11/24 20:44:07;;;;;;;31.40;15.20;;;;;;;5.37;100.00;99894.00;1678258;85;21090;-73
2022/11/24 20:46:36;;;;;;;30.17;14.53;;;;;;;5.38;100.00;99897.52;1677907;83;21084;-72
2022/11/24 20:49:05;;;;;;;33.23;15.73;;;;;;;5.36;100.00;99896.82;1730257;83;21098;-73
2022/11/24 20:51:35;;;;;;;30.93;15.63;;;;;;;5.37;100.00;99898.02;1730295;83;21534;-74
2022/11/24 20:54:07;;;;;;;32.63;16.07;;;;;;;5.37;100.00;99885.13;1730336;83;21057;-74
2022/11/24 20:56:36;;;;;;;28.60;14.37;;;;;;;5.38;100.00;99886.80;1730248;83;20990;-72
2022/11/24 20:59:03;;;;;;;30.87;14.40;;;;;;;5.38;100.00;99890.31;1730376;83;21022;-71
2022/11/24 21:01:38;;;;;;;30.97;14.60;;;;;;;5.39;100.00;99888.00;1730259;83;21614;-73
2022/11/24 21:04:08;;;;;;;31.60;15.43;;;;;;;5.40;100.00;99895.06;1750833;82;21547;-72
2022/11/24 21:06:36;;;;;;;31.73;14.20;;;;;;;5.41;100.00;99888.70;1764639;81;21538;-72
2022/11/24 21:09:05;;;;;;;26.53;13.07;;;;;;;5.44;100.00;99900.99;1765055;81;21043;-72
2022/11/24 21:11:33;;;;;;;32.77;14.67;;;;;;;5.44;100.00;99903.17;1736957;81;20981;-72
2022/11/24 21:14:02;;;;;;;30.47;14.93;;;;;;;5.46;100.00;99899.84;1764613;81;21029;-73
2022/11/24 21:16:33;;;;;;;27.83;13.70;;;;;;;5.47;100.00;99900.22;1764723;81;21487;-73
2022/11/24 21:19:12;;;;;;;28.47;14.00;;;;;;;5.49;100.00;99901.42;1663138;86;21001;-73
2022/11/24 21:21:41;;;;;;;34.73;13.33;;;;;;;5.50;100.00;99912.48;1634456;88;21551;-72
2022/11/24 21:24:13;;;;;;;26.30;12.70;;;;;;;5.52;100.00;99914.52;1654232;87;21095;-72
2022/11/24 21:26:41;;;;;;;25.95;13.00;;;;;;;5.53;100.00;99914.89;1654221;87;21073;-73
2022/11/24 21:29:11;;;;;;;29.60;13.40;;;;;;;5.55;100.00;99916.93;1654027;87;21057;-72
2022/11/24 21:31:40;;;;;;;29.27;13.93;;;;;;;5.54;100.00;99907.17;1653984;87;21506;-73
2022/11/24 21:34:08;;;;;;;29.67;13.60;;;;;;;5.53;100.00;99903.33;1653955;87;21067;-74
2022/11/24 21:36:36;;;;;;;33.97;15.80;;;;;;;5.49;100.00;99896.05;1654201;87;21076;-73
2022/11/24 21:39:06;;;;;;;29.33;14.87;;;;;;;5.45;100.00;99898.17;1654175;87;21149;-73
2022/11/24 21:41:34;;;;;;;27.10;13.73;;;;;;;5.43;100.00;99901.97;1653951;87;21056;-73
2022/11/24 21:44:01;;;;;;;28.30;13.37;;;;;;;5.41;100.00;99902.61;1654146;87;21092;-73
2022/11/24 21:46:33;;;;;;;29.27;13.67;;;;;;;5.42;100.00;99901.60;1653856;86;21072;-72
2022/11/24 21:48:58;;;;;;;27.53;13.23;;;;;;;5.42;100.00;99905.62;1651163;85;21012;-72
2022/11/24 21:51:26;;;;;;;31.80;14.07;;;;;;;5.42;100.00;99905.16;1653865;85;21064;-72
2022/11/24 21:53:53;;;;;;;28.67;12.77;;;;;;;5.43;100.00;99904.14;1654154;87;21064;-72
2022/11/24 21:56:22;;;;;;;26.63;13.40;;;;;;;5.44;100.00;99905.02;1653900;87;21061;-72
2022/11/24 21:58:56;;;;;;;29.63;14.07;;;;;;;5.44;100.00;99906.36;1653975;87;21096;-72
2022/11/24 22:01:26;;;;;;;27.17;13.73;;;;;;;5.44;100.00;99909.04;1654004;85;21640;-73
2022/11/24 22:03:53;;;;;;;26.50;12.03;;;;;;;5.45;100.00;99906.69;1653948;85;21072;-72
2022/11/24 22:06:19;;;;;;;29.40;12.97;;;;;;;5.46;100.00;99905.72;1654237;87;21012;-72
2022/11/24 22:08:47;;;;;;;28.27;13.33;;;;;;;5.45;100.00;99903.53;1653860;87;21541;-73
2022/11/24 22:11:21;;;;;;;25.20;13.10;;;;;;;5.47;100.00;99907.39;1653864;87;21072;-72
2022/11/24 22:13:50;;;;;;;24.80;11.83;;;;;;;5.47;100.00;99904.71;1601806;90;21047;-71
2022/11/24 22:16:21;;;;;;;26.07;12.50;;;;;;;5.45;100.00;99899.52;1621219;88;21088;-73
2022/11/24 22:18:49;;;;;;;27.37;12.00;;;;;;;5.45;100.00;99886.58;1611541;89;21066;-73
2022/11/24 22:21:21;;;;;;;25.90;13.17;;;;;;;5.45;100.00;99890.59;1618545;89;21071;-73
2022/11/24 22:23:52;;;;;;;30.73;13.60;;;;;;;5.42;100.00;99882.83;1618684;89;21099;-72
